sensor_id;sensor_type;location;lat;lon;timestamp;pressure;altitude;pressure_sealevel;temperature;humidity
48156;BME280;35568;48.104;11.782;2023-03-21T00:01:40;95603.28;;;8.73;47.96
48156;BME280;35568;48.104;11.782;2023-03-21T00:04:07;95600.44;;;8.78;47.74
48156;BME280;35568;48.104;11.782;2023-03-21T00:06:34;95597.11;;;8.72;47.93
48156;BME280;35568;48.104;11.782;2023-03-21T00:09:01;95596.34;;;8.94;48.00
48156;BME280;35568;48.104;11.782;2023-03-21T00:11:28;95593.67;;;8.98;48.06
48156;BME280;35568;48.104;11.782;2023-03-21T00:13:54;95590.75;;;8.92;48.20
48156;BME280;35568;48.104;11.782;2023-03-21T00:16:21;95590.81;;;9.26;47.96
48156;BME280;35568;48.104;11.782;2023-03-21T00:18:49;95589.43;;;8.75;48.00
48156;BME280;35568;48.104;11.782;2023-03-21T00:21:17;95585.66;;;8.53;48.06
48156;BME280;35568;48.104;11.782;2023-03-21T00:23:45;95584.35;;;9.06;48.03
48156;BME280;35568;48.104;11.782;2023-03-21T00:26:13;95583.13;;;9.13;48.00
48156;BME280;35568;48.104;11.782;2023-03-21T00:28:41;95583.26;;;8.78;48.09
48156;BME280;35568;48.104;11.782;2023-03-21T00:31:10;95579.42;;;9.13;48.10
48156;BME280;35568;48.104;11.782;2023-03-21T00:33:37;95579.55;;;9.24;47.79
48156;BME280;35568;48.104;11.782;2023-03-21T00:36:04;95579.07;;;8.98;47.74
48156;BME280;35568;48.104;11.782;2023-03-21T00:38:31;95576.01;;;9.28;47.81
48156;BME280;35568;48.104;11.782;2023-03-21T00:40:58;95573.59;;;9.19;47.64
48156;BME280;35568;48.104;11.782;2023-03-21T00:43:25;95572.26;;;9.31;47.71
48156;BME280;35568;48.104;11.782;2023-03-21T00:45:52;95569.96;;;9.04;47.79
48156;BME280;35568;48.104;11.782;2023-03-21T00:48:19;95569.22;;;9.10;47.70
48156;BME280;35568;48.104;11.782;2023-03-21T00:50:46;95568.15;;;9.50;47.54
48156;BME280;35568;48.104;11.782;2023-03-21T00:53:13;95563.76;;;9.16;47.59
48156;BME280;35568;48.104;11.782;2023-03-21T00:55:40;95563.09;;;9.39;47.90
48156;BME280;35568;48.104;11.782;2023-03-21T00:58:07;95558.92;;;9.03;47.64
48156;BME280;35568;48.104;11.782;2023-03-21T01:00:34;95556.02;;;9.21;47.40
48156;BME280;35568;48.104;11.782;2023-03-21T01:03:01;95550.52;;;9.47;47.02
48156;BME280;35568;48.104;11.782;2023-03-21T01:05:29;95550.11;;;9.56;46.95
48156;BME280;35568;48.104;11.782;2023-03-21T01:07:57;95552.70;;;9.47;47.01
48156;BME280;35568;48.104;11.782;2023-03-21T01:10:23;95549.28;;;9.41;47.14
48156;BME280;35568;48.104;11.782;2023-03-21T01:12:50;95546.70;;;9.61;46.78
48156;BME280;35568;48.104;11.782;2023-03-21T01:15:18;95544.83;;;9.55;46.85
48156;BME280;35568;48.104;11.782;2023-03-21T01:17:45;95545.41;;;9.62;46.94
48156;BME280;35568;48.104;11.782;2023-03-21T01:20:12;95545.70;;;9.23;47.21
48156;BME280;35568;48.104;11.782;2023-03-21T01:22:39;95544.20;;;9.01;47.48
48156;BME280;35568;48.104;11.782;2023-03-21T01:25:06;95543.79;;;9.00;47.60
48156;BME280;35568;48.104;11.782;2023-03-21T01:27:33;95543.98;;;9.62;47.44
48156;BME280;35568;48.104;11.782;2023-03-21T01:30:00;95542.06;;;9.39;47.70
48156;BME280;35568;48.104;11.782;2023-03-21T01:32:27;95536.77;;;9.76;47.44
48156;BME280;35568;48.104;11.782;2023-03-21T01:34:54;95535.25;;;9.77;47.08
48156;BME280;35568;48.104;11.782;2023-03-21T01:37:21;95532.84;;;9.74;46.83
48156;BME280;35568;48.104;11.782;2023-03-21T01:39:48;95534.42;;;9.72;46.72
48156;BME280;35568;48.104;11.782;2023-03-21T01:42:15;95531.12;;;10.09;46.95
48156;BME280;35568;48.104;11.782;2023-03-21T01:44:53;95528.98;;;9.90;46.88
48156;BME280;35568;48.104;11.782;2023-03-21T01:47:21;95525.85;;;9.93;46.91
48156;BME280;35568;48.104;11.782;2023-03-21T01:49:49;95526.44;;;9.97;46.88
48156;BME280;35568;48.104;11.782;2023-03-21T01:52:19;95524.61;;;9.88;46.65
48156;BME280;35568;48.104;11.782;2023-03-21T01:54:48;95523.61;;;9.73;46.86
48156;BME280;35568;48.104;11.782;2023-03-21T01:57:22;95521.53;;;10.04;46.79
48156;BME280;35568;48.104;11.782;2023-03-21T01:59:51;95517.62;;;9.73;46.84
48156;BME280;35568;48.104;11.782;2023-03-21T02:02:22;95510.27;;;9.92;46.69
48156;BME280;35568;48.104;11.782;2023-03-21T02:04:50;95507.33;;;9.89;46.55
48156;BME280;35568;48.104;11.782;2023-03-21T02:07:24;95501.42;;;9.87;46.75
48156;BME280;35568;48.104;11.782;2023-03-21T02:09:53;95500.19;;;10.02;46.77
48156;BME280;35568;48.104;11.782;2023-03-21T02:12:21;95499.99;;;9.87;46.88
48156;BME280;35568;48.104;11.782;2023-03-21T02:14:49;95501.07;;;10.01;46.46
48156;BME280;35568;48.104;11.782;2023-03-21T02:17:23;95499.95;;;9.95;46.34
48156;BME280;35568;48.104;11.782;2023-03-21T02:20:09;95501.69;;;10.52;46.30
48156;BME280;35568;48.104;11.782;2023-03-21T02:23:19;95500.44;;;10.01;46.16
48156;BME280;35568;48.104;11.782;2023-03-21T02:26:41;95500.48;;;9.91;46.41
48156;BME280;35568;48.104;11.782;2023-03-21T02:29:27;95502.87;;;9.98;46.38
48156;BME280;35568;48.104;11.782;2023-03-21T02:32:04;95504.47;;;10.04;46.17
48156;BME280;35568;48.104;11.782;2023-03-21T02:34:44;95506.46;;;10.04;46.20
48156;BME280;35568;48.104;11.782;2023-03-21T02:37:20;95507.35;;;10.06;46.21
48156;BME280;35568;48.104;11.782;2023-03-21T02:39:56;95507.28;;;10.06;46.26
48156;BME280;35568;48.104;11.782;2023-03-21T02:42:29;95504.65;;;9.56;47.02
48156;BME280;35568;48.104;11.782;2023-03-21T02:45:04;95504.85;;;9.41;47.27
48156;BME280;35568;48.104;11.782;2023-03-21T02:47:38;95509.17;;;9.80;47.11
48156;BME280;35568;48.104;11.782;2023-03-21T02:50:12;95509.10;;;9.87;46.98
48156;BME280;35568;48.104;11.782;2023-03-21T02:52:44;95503.72;;;9.52;47.21
48156;BME280;35568;48.104;11.782;2023-03-21T02:55:15;95502.87;;;9.32;47.46
48156;BME280;35568;48.104;11.782;2023-03-21T02:57:44;95500.71;;;9.68;47.34
48156;BME280;35568;48.104;11.782;2023-03-21T03:00:18;95504.16;;;9.85;47.12
48156;BME280;35568;48.104;11.782;2023-03-21T03:02:47;95501.93;;;9.98;47.20
48156;BME280;35568;48.104;11.782;2023-03-21T03:05:17;95502.27;;;9.60;47.56
48156;BME280;35568;48.104;11.782;2023-03-21T03:07:52;95499.20;;;9.50;47.63
48156;BME280;35568;48.104;11.782;2023-03-21T03:10:34;95499.41;;;9.24;47.73
48156;BME280;35568;48.104;11.782;2023-03-21T03:13:11;95501.92;;;9.88;47.64
48156;BME280;35568;48.104;11.782;2023-03-21T03:15:52;95501.50;;;9.64;47.47
48156;BME280;35568;48.104;11.782;2023-03-21T03:18:28;95497.44;;;9.24;47.70
48156;BME280;35568;48.104;11.782;2023-03-21T03:21:05;95496.62;;;9.17;47.88
48156;BME280;35568;48.104;11.782;2023-03-21T03:23:42;95495.99;;;9.23;48.19
48156;BME280;35568;48.104;11.782;2023-03-21T03:26:12;95496.57;;;9.13;48.37
48156;BME280;35568;48.104;11.782;2023-03-21T03:28:49;95493.74;;;9.49;48.21
48156;BME280;35568;48.104;11.782;2023-03-21T03:31:20;95493.01;;;9.31;48.23
48156;BME280;35568;48.104;11.782;2023-03-21T03:33:51;95496.41;;;9.05;48.23
48156;BME280;35568;48.104;11.782;2023-03-21T03:36:20;95494.35;;;9.06;48.27
48156;BME280;35568;48.104;11.782;2023-03-21T03:38:50;95491.72;;;9.67;48.11
48156;BME280;35568;48.104;11.782;2023-03-21T03:41:21;95494.17;;;9.17;48.12
48156;BME280;35568;48.104;11.782;2023-03-21T03:43:52;95491.10;;;9.15;48.06
48156;BME280;35568;48.104;11.782;2023-03-21T03:46:27;95492.48;;;9.38;48.11
48156;BME280;35568;48.104;11.782;2023-03-21T03:48:59;95492.05;;;9.36;48.23
48156;BME280;35568;48.104;11.782;2023-03-21T03:51:31;95489.82;;;9.15;48.20
48156;BME280;35568;48.104;11.782;2023-03-21T03:54:02;95488.18;;;9.40;48.04
48156;BME280;35568;48.104;11.782;2023-03-21T03:56:32;95489.29;;;9.76;47.88
48156;BME280;35568;48.104;11.782;2023-03-21T03:59:03;95487.35;;;9.45;47.59
48156;BME280;35568;48.104;11.782;2023-03-21T04:03:01;95488.35;;;10.13;46.68
48156;BME280;35568;48.104;11.782;2023-03-21T04:05:28;95488.34;;;10.01;46.98
48156;BME280;35568;48.104;11.782;2023-03-21T04:07:55;95487.92;;;10.09;46.94
48156;BME280;35568;48.104;11.782;2023-03-21T04:10:22;95486.12;;;9.66;47.23
48156;BME280;35568;48.104;11.782;2023-03-21T04:12:49;95485.46;;;9.49;47.52
48156;BME280;35568;48.104;11.782;2023-03-21T04:15:16;95484.03;;;9.21;48.08
48156;BME280;35568;48.104;11.782;2023-03-21T04:17:44;95483.99;;;9.46;47.79
48156;BME280;35568;48.104;11.782;2023-03-21T04:20:11;95486.43;;;9.49;47.95
48156;BME280;35568;48.104;11.782;2023-03-21T04:22:39;95489.87;;;9.90;47.37
48156;BME280;35568;48.104;11.782;2023-03-21T04:25:06;95490.71;;;9.76;47.28
48156;BME280;35568;48.104;11.782;2023-03-21T04:27:33;95490.79;;;9.72;47.39
48156;BME280;35568;48.104;11.782;2023-03-21T04:30:00;95488.12;;;9.18;47.72
48156;BME280;35568;48.104;11.782;2023-03-21T04:32:27;95486.22;;;9.63;47.94
48156;BME280;35568;48.104;11.782;2023-03-21T04:34:54;95483.75;;;9.67;47.68
48156;BME280;35568;48.104;11.782;2023-03-21T04:37:21;95481.21;;;9.33;47.87
48156;BME280;35568;48.104;11.782;2023-03-21T04:39:49;95482.90;;;9.53;47.77
48156;BME280;35568;48.104;11.782;2023-03-21T04:42:17;95484.64;;;10.04;47.56
48156;BME280;35568;48.104;11.782;2023-03-21T04:44:44;95480.64;;;9.28;47.97
48156;BME280;35568;48.104;11.782;2023-03-21T04:47:12;95479.77;;;9.58;48.03
48156;BME280;35568;48.104;11.782;2023-03-21T04:49:38;95483.08;;;9.62;47.70
48156;BME280;35568;48.104;11.782;2023-03-21T04:52:05;95482.65;;;9.73;47.38
48156;BME280;35568;48.104;11.782;2023-03-21T04:54:32;95480.55;;;9.82;47.28
48156;BME280;35568;48.104;11.782;2023-03-21T04:56:59;95480.02;;;9.86;47.20
48156;BME280;35568;48.104;11.782;2023-03-21T04:59:26;95480.23;;;9.98;46.92
48156;BME280;35568;48.104;11.782;2023-03-21T05:01:53;95480.45;;;9.97;46.88
48156;BME280;35568;48.104;11.782;2023-03-21T05:04:20;95481.06;;;9.76;47.15
48156;BME280;35568;48.104;11.782;2023-03-21T05:06:47;95478.70;;;9.49;47.47
48156;BME280;35568;48.104;11.782;2023-03-21T05:09:14;95474.79;;;9.38;47.87
48156;BME280;35568;48.104;11.782;2023-03-21T05:11:42;95471.23;;;9.78;47.76
48156;BME280;35568;48.104;11.782;2023-03-21T05:14:11;95470.12;;;9.83;47.74
48156;BME280;35568;48.104;11.782;2023-03-21T05:16:41;95470.26;;;9.52;47.71
48156;BME280;35568;48.104;11.782;2023-03-21T05:19:10;95473.14;;;9.56;47.89
48156;BME280;35568;48.104;11.782;2023-03-21T05:21:37;95476.56;;;9.17;48.08
48156;BME280;35568;48.104;11.782;2023-03-21T05:24:04;95478.01;;;9.51;48.37
48156;BME280;35568;48.104;11.782;2023-03-21T05:26:32;95477.88;;;8.90;48.73
48156;BME280;35568;48.104;11.782;2023-03-21T05:28:58;95478.66;;;9.76;48.21
48156;BME280;35568;48.104;11.782;2023-03-21T05:31:25;95476.08;;;9.23;48.39
48156;BME280;35568;48.104;11.782;2023-03-21T05:33:52;95474.98;;;9.25;48.27
48156;BME280;35568;48.104;11.782;2023-03-21T05:36:19;95477.91;;;9.19;48.28
48156;BME280;35568;48.104;11.782;2023-03-21T05:38:46;95480.23;;;9.62;48.32
48156;BME280;35568;48.104;11.782;2023-03-21T05:41:14;95482.16;;;9.56;48.46
48156;BME280;35568;48.104;11.782;2023-03-21T05:43:42;95477.83;;;9.47;48.65
48156;BME280;35568;48.104;11.782;2023-03-21T05:46:10;95480.12;;;9.74;48.57
48156;BME280;35568;48.104;11.782;2023-03-21T05:48:37;95483.70;;;9.58;48.06
48156;BME280;35568;48.104;11.782;2023-03-21T05:51:04;95485.20;;;9.77;47.93
48156;BME280;35568;48.104;11.782;2023-03-21T05:53:31;95484.32;;;9.88;47.49
48156;BME280;35568;48.104;11.782;2023-03-21T05:55:58;95489.31;;;10.05;47.39
48156;BME280;35568;48.104;11.782;2023-03-21T05:58:25;95491.09;;;10.31;47.30
48156;BME280;35568;48.104;11.782;2023-03-21T06:00:52;95491.02;;;10.03;47.22
48156;BME280;35568;48.104;11.782;2023-03-21T06:03:19;95492.42;;;9.99;47.23
48156;BME280;35568;48.104;11.782;2023-03-21T06:05:45;95490.29;;;10.38;47.30
48156;BME280;35568;48.104;11.782;2023-03-21T06:08:12;95490.07;;;9.94;47.34
48156;BME280;35568;48.104;11.782;2023-03-21T06:10:39;95492.82;;;10.02;47.23
48156;BME280;35568;48.104;11.782;2023-03-21T06:13:06;95494.49;;;9.93;47.03
48156;BME280;35568;48.104;11.782;2023-03-21T06:15:33;95490.95;;;9.71;47.59
48156;BME280;35568;48.104;11.782;2023-03-21T06:18:00;95490.84;;;9.85;47.50
48156;BME280;35568;48.104;11.782;2023-03-21T06:20:27;95493.14;;;9.78;47.52
48156;BME280;35568;48.104;11.782;2023-03-21T06:22:54;95494.45;;;9.80;47.65
48156;BME280;35568;48.104;11.782;2023-03-21T06:25:21;95498.77;;;9.67;47.38
48156;BME280;35568;48.104;11.782;2023-03-21T06:27:49;95502.21;;;10.00;47.54
48156;BME280;35568;48.104;11.782;2023-03-21T06:30:16;95500.34;;;10.22;47.25
48156;BME280;35568;48.104;11.782;2023-03-21T06:32:44;95503.75;;;10.28;47.16
48156;BME280;35568;48.104;11.782;2023-03-21T06:35:11;95503.40;;;10.18;46.87
48156;BME280;35568;48.104;11.782;2023-03-21T06:37:37;95501.60;;;10.64;46.29
48156;BME280;35568;48.104;11.782;2023-03-21T06:40:05;95504.06;;;10.88;45.87
48156;BME280;35568;48.104;11.782;2023-03-21T06:42:32;95505.98;;;11.01;45.46
48156;BME280;35568;48.104;11.782;2023-03-21T06:44:59;95510.48;;;11.16;45.23
48156;BME280;35568;48.104;11.782;2023-03-21T06:47:26;95509.75;;;11.29;45.02
48156;BME280;35568;48.104;11.782;2023-03-21T06:49:53;95513.96;;;11.49;44.94
48156;BME280;35568;48.104;11.782;2023-03-21T06:52:20;95514.52;;;11.49;44.31
48156;BME280;35568;48.104;11.782;2023-03-21T06:54:47;95516.32;;;11.67;44.07
48156;BME280;35568;48.104;11.782;2023-03-21T06:57:14;95518.66;;;11.67;43.78
48156;BME280;35568;48.104;11.782;2023-03-21T06:59:41;95514.48;;;12.02;43.57
48156;BME280;35568;48.104;11.782;2023-03-21T07:02:09;95515.13;;;11.94;43.87
48156;BME280;35568;48.104;11.782;2023-03-21T07:04:35;95513.84;;;11.86;43.94
48156;BME280;35568;48.104;11.782;2023-03-21T07:07:02;95513.93;;;11.91;43.46
48156;BME280;35568;48.104;11.782;2023-03-21T07:09:29;95514.77;;;11.80;43.51
48156;BME280;35568;48.104;11.782;2023-03-21T07:11:56;95513.09;;;11.94;43.16
48156;BME280;35568;48.104;11.782;2023-03-21T07:14:23;95515.47;;;12.48;42.45
48156;BME280;35568;48.104;11.782;2023-03-21T07:16:50;95514.83;;;12.34;42.67
48156;BME280;35568;48.104;11.782;2023-03-21T07:19:16;95517.44;;;12.46;42.18
48156;BME280;35568;48.104;11.782;2023-03-21T07:21:43;95517.29;;;12.34;42.71
48156;BME280;35568;48.104;11.782;2023-03-21T07:24:11;95514.70;;;12.31;42.78
48156;BME280;35568;48.104;11.782;2023-03-21T07:26:38;95514.39;;;11.92;42.90
48156;BME280;35568;48.104;11.782;2023-03-21T07:29:06;95515.58;;;12.08;41.99
48156;BME280;35568;48.104;11.782;2023-03-21T07:31:32;95522.21;;;12.16;41.88
48156;BME280;35568;48.104;11.782;2023-03-21T07:33:59;95520.00;;;12.12;42.04
48156;BME280;35568;48.104;11.782;2023-03-21T07:36:26;95520.65;;;11.92;41.91
48156;BME280;35568;48.104;11.782;2023-03-21T07:38:53;95516.71;;;12.43;41.75
48156;BME280;35568;48.104;11.782;2023-03-21T07:41:20;95518.10;;;12.84;41.28
48156;BME280;35568;48.104;11.782;2023-03-21T07:43:46;95514.17;;;12.86;41.09
48156;BME280;35568;48.104;11.782;2023-03-21T07:46:13;95515.65;;;12.89;40.60
48156;BME280;35568;48.104;11.782;2023-03-21T07:48:40;95514.39;;;12.90;40.31
48156;BME280;35568;48.104;11.782;2023-03-21T07:51:07;95514.99;;;13.08;39.74
48156;BME280;35568;48.104;11.782;2023-03-21T07:53:34;95511.74;;;13.27;39.44
48156;BME280;35568;48.104;11.782;2023-03-21T07:56:01;95513.24;;;13.19;39.51
48156;BME280;35568;48.104;11.782;2023-03-21T07:58:27;95515.04;;;13.24;39.67
48156;BME280;35568;48.104;11.782;2023-03-21T08:00:55;95511.96;;;13.11;39.56
48156;BME280;35568;48.104;11.782;2023-03-21T08:03:24;95518.10;;;12.88;39.46
48156;BME280;35568;48.104;11.782;2023-03-21T08:05:51;95518.70;;;12.56;39.21
48156;BME280;35568;48.104;11.782;2023-03-21T08:08:18;95515.16;;;13.12;39.12
48156;BME280;35568;48.104;11.782;2023-03-21T08:10:46;95512.66;;;12.81;38.88
48156;BME280;35568;48.104;11.782;2023-03-21T08:13:13;95512.34;;;13.29;38.43
48156;BME280;35568;48.104;11.782;2023-03-21T08:15:41;95513.36;;;13.86;38.10
48156;BME280;35568;48.104;11.782;2023-03-21T08:18:09;95510.48;;;13.81;37.58
48156;BME280;35568;48.104;11.782;2023-03-21T08:20:37;95512.99;;;13.79;37.78
48156;BME280;35568;48.104;11.782;2023-03-21T08:23:06;95512.58;;;14.42;37.85
48156;BME280;35568;48.104;11.782;2023-03-21T08:25:34;95513.02;;;14.09;37.43
48156;BME280;35568;48.104;11.782;2023-03-21T08:28:02;95513.00;;;14.24;36.90
48156;BME280;35568;48.104;11.782;2023-03-21T08:30:29;95512.02;;;14.46;36.58
48156;BME280;35568;48.104;11.782;2023-03-21T08:32:57;95511.74;;;14.32;36.28
48156;BME280;35568;48.104;11.782;2023-03-21T08:35:25;95511.04;;;14.06;36.92
48156;BME280;35568;48.104;11.782;2023-03-21T08:37:52;95509.08;;;14.00;36.79
48156;BME280;35568;48.104;11.782;2023-03-21T08:40:19;95508.54;;;14.16;37.11
48156;BME280;35568;48.104;11.782;2023-03-21T08:42:46;95504.42;;;14.38;36.30
48156;BME280;35568;48.104;11.782;2023-03-21T08:45:14;95499.09;;;14.36;36.13
48156;BME280;35568;48.104;11.782;2023-03-21T08:47:42;95499.17;;;14.33;36.27
48156;BME280;35568;48.104;11.782;2023-03-21T08:50:11;95501.84;;;14.82;36.13
48156;BME280;35568;48.104;11.782;2023-03-21T08:52:39;95498.19;;;15.27;35.58
48156;BME280;35568;48.104;11.782;2023-03-21T08:55:07;95494.31;;;15.28;34.72
48156;BME280;35568;48.104;11.782;2023-03-21T08:57:33;95489.52;;;15.53;35.20
48156;BME280;35568;48.104;11.782;2023-03-21T09:00:01;95492.91;;;15.67;35.41
48156;BME280;35568;48.104;11.782;2023-03-21T09:02:28;95493.06;;;15.51;35.48
48156;BME280;35568;48.104;11.782;2023-03-21T09:04:56;95497.93;;;15.28;34.93
48156;BME280;35568;48.104;11.782;2023-03-21T09:07:23;95499.73;;;15.51;35.27
48156;BME280;35568;48.104;11.782;2023-03-21T09:09:50;95496.74;;;15.29;34.66
48156;BME280;35568;48.104;11.782;2023-03-21T09:12:18;95494.76;;;15.28;34.93
48156;BME280;35568;48.104;11.782;2023-03-21T09:14:45;95492.25;;;15.57;35.07
48156;BME280;35568;48.104;11.782;2023-03-21T09:17:12;95491.00;;;15.18;35.11
48156;BME280;35568;48.104;11.782;2023-03-21T09:19:39;95491.91;;;15.24;34.88
48156;BME280;35568;48.104;11.782;2023-03-21T09:22:05;95491.72;;;15.11;33.65
48156;BME280;35568;48.104;11.782;2023-03-21T09:24:32;95487.13;;;15.44;33.83
48156;BME280;35568;48.104;11.782;2023-03-21T09:26:59;95488.87;;;16.20;33.42
48156;BME280;35568;48.104;11.782;2023-03-21T09:29:26;95490.22;;;16.08;32.51
48156;BME280;35568;48.104;11.782;2023-03-21T09:31:54;95486.87;;;15.84;32.70
48156;BME280;35568;48.104;11.782;2023-03-21T09:34:20;95487.58;;;15.39;32.77
48156;BME280;35568;48.104;11.782;2023-03-21T09:36:47;95482.44;;;15.87;32.83
48156;BME280;35568;48.104;11.782;2023-03-21T09:39:14;95480.45;;;15.77;32.85
48156;BME280;35568;48.104;11.782;2023-03-21T09:41:53;95479.89;;;15.81;33.25
48156;BME280;35568;48.104;11.782;2023-03-21T09:44:31;95482.60;;;16.12;33.30
48156;BME280;35568;48.104;11.782;2023-03-21T09:47:08;95479.57;;;15.65;33.39
48156;BME280;35568;48.104;11.782;2023-03-21T09:49:43;95475.56;;;15.75;33.86
48156;BME280;35568;48.104;11.782;2023-03-21T09:52:16;95470.25;;;15.73;33.32
48156;BME280;35568;48.104;11.782;2023-03-21T09:54:45;95474.76;;;16.63;32.74
48156;BME280;35568;48.104;11.782;2023-03-21T09:57:18;95475.68;;;17.02;32.51
48156;BME280;35568;48.104;11.782;2023-03-21T09:59:55;95477.67;;;16.76;31.95
48156;BME280;35568;48.104;11.782;2023-03-21T10:02:34;95479.83;;;17.36;31.83
48156;BME280;35568;48.104;11.782;2023-03-21T10:05:11;95477.77;;;17.56;31.20
48156;BME280;35568;48.104;11.782;2023-03-21T10:07:41;95477.36;;;17.51;31.48
48156;BME280;35568;48.104;11.782;2023-03-21T10:10:14;95471.26;;;17.96;31.17
48156;BME280;35568;48.104;11.782;2023-03-21T10:12:44;95471.64;;;17.82;30.74
48156;BME280;35568;48.104;11.782;2023-03-21T10:15:16;95469.18;;;17.67;30.91
48156;BME280;35568;48.104;11.782;2023-03-21T10:17:49;95466.48;;;16.73;30.99
48156;BME280;35568;48.104;11.782;2023-03-21T10:20:20;95463.25;;;17.10;31.04
48156;BME280;35568;48.104;11.782;2023-03-21T10:22:50;95460.44;;;17.31;31.64
48156;BME280;35568;48.104;11.782;2023-03-21T10:25:21;95460.77;;;16.56;32.58
48156;BME280;35568;48.104;11.782;2023-03-21T10:27:51;95458.75;;;16.68;32.29
48156;BME280;35568;48.104;11.782;2023-03-21T10:30:26;95452.23;;;16.91;31.82
48156;BME280;35568;48.104;11.782;2023-03-21T10:32:56;95448.26;;;16.60;32.09
48156;BME280;35568;48.104;11.782;2023-03-21T10:35:26;95444.23;;;16.40;31.36
48156;BME280;35568;48.104;11.782;2023-03-21T10:37:53;95445.04;;;16.38;31.38
48156;BME280;35568;48.104;11.782;2023-03-21T10:40:20;95446.14;;;15.89;31.53
48156;BME280;35568;48.104;11.782;2023-03-21T10:42:47;95444.18;;;16.24;31.57
48156;BME280;35568;48.104;11.782;2023-03-21T10:45:17;95440.32;;;17.30;31.40
48156;BME280;35568;48.104;11.782;2023-03-21T10:47:47;95439.07;;;16.85;30.91
48156;BME280;35568;48.104;11.782;2023-03-21T10:50:18;95435.59;;;17.16;30.69
48156;BME280;35568;48.104;11.782;2023-03-21T10:52:49;95434.82;;;17.61;30.72
48156;BME280;35568;48.104;11.782;2023-03-21T10:55:20;95436.36;;;18.14;29.23
48156;BME280;35568;48.104;11.782;2023-03-21T10:57:52;95431.39;;;18.31;28.95
48156;BME280;35568;48.104;11.782;2023-03-21T11:00:23;95431.39;;;18.62;28.74
48156;BME280;35568;48.104;11.782;2023-03-21T11:02:52;95430.31;;;18.14;28.99
48156;BME280;35568;48.104;11.782;2023-03-21T11:05:23;95431.80;;;18.52;28.69
48156;BME280;35568;48.104;11.782;2023-03-21T11:08:00;95431.22;;;18.78;28.66
48156;BME280;35568;48.104;11.782;2023-03-21T11:10:31;95426.70;;;18.57;28.32
48156;BME280;35568;48.104;11.782;2023-03-21T11:13:03;95425.01;;;19.49;27.98
48156;BME280;35568;48.104;11.782;2023-03-21T11:15:37;95417.45;;;20.11;27.58
48156;BME280;35568;48.104;11.782;2023-03-21T11:18:16;95415.36;;;19.69;27.37
48156;BME280;35568;48.104;11.782;2023-03-21T11:20:49;95410.53;;;20.64;26.26
48156;BME280;35568;48.104;11.782;2023-03-21T11:23:17;95409.46;;;20.56;25.99
48156;BME280;35568;48.104;11.782;2023-03-21T11:25:47;95412.67;;;20.36;26.58
48156;BME280;35568;48.104;11.782;2023-03-21T11:28:21;95408.47;;;19.39;25.80
48156;BME280;35568;48.104;11.782;2023-03-21T11:30:54;95405.59;;;21.11;24.59
48156;BME280;35568;48.104;11.782;2023-03-21T11:33:25;95401.97;;;21.32;24.88
48156;BME280;35568;48.104;11.782;2023-03-21T11:36:04;95399.14;;;21.52;24.73
48156;BME280;35568;48.104;11.782;2023-03-21T11:38:36;95391.85;;;21.82;25.19
48156;BME280;35568;48.104;11.782;2023-03-21T11:41:05;95391.24;;;21.00;25.27
48156;BME280;35568;48.104;11.782;2023-03-21T11:43:35;95389.11;;;21.46;25.54
48156;BME280;35568;48.104;11.782;2023-03-21T11:46:08;95382.89;;;22.07;24.57
48156;BME280;35568;48.104;11.782;2023-03-21T11:48:38;95375.90;;;22.59;23.84
48156;BME280;35568;48.104;11.782;2023-03-21T11:51:21;95369.89;;;22.88;24.26
48156;BME280;35568;48.104;11.782;2023-03-21T11:54:00;95364.34;;;22.82;23.88
48156;BME280;35568;48.104;11.782;2023-03-21T11:56:33;95365.80;;;22.33;23.90
48156;BME280;35568;48.104;11.782;2023-03-21T11:59:20;95360.86;;;22.02;24.39
48156;BME280;35568;48.104;11.782;2023-03-21T12:02:16;95350.44;;;22.75;23.44
48156;BME280;35568;48.104;11.782;2023-03-21T12:04:54;95346.21;;;22.59;22.77
48156;BME280;35568;48.104;11.782;2023-03-21T12:07:36;95340.68;;;23.44;22.17
48156;BME280;35568;48.104;11.782;2023-03-21T12:10:26;95330.43;;;23.80;22.50
48156;BME280;35568;48.104;11.782;2023-03-21T12:13:02;95324.07;;;23.57;22.47
48156;BME280;35568;48.104;11.782;2023-03-21T12:15:38;95324.88;;;24.09;22.15
48156;BME280;35568;48.104;11.782;2023-03-21T12:18:15;95324.42;;;23.52;21.70
48156;BME280;35568;48.104;11.782;2023-03-21T12:20:54;95318.07;;;24.06;21.61
48156;BME280;35568;48.104;11.782;2023-03-21T12:23:43;95316.89;;;24.76;20.83
48156;BME280;35568;48.104;11.782;2023-03-21T12:26:20;95312.94;;;24.24;20.07
48156;BME280;35568;48.104;11.782;2023-03-21T12:29:01;95311.19;;;23.87;21.09
48156;BME280;35568;48.104;11.782;2023-03-21T12:31:40;95308.24;;;24.76;20.82
48156;BME280;35568;48.104;11.782;2023-03-21T12:34:23;95303.69;;;24.76;19.50
48156;BME280;35568;48.104;11.782;2023-03-21T12:37:05;95300.09;;;24.81;19.44
48156;BME280;35568;48.104;11.782;2023-03-21T12:39:39;95298.21;;;25.50;19.69
48156;BME280;35568;48.104;11.782;2023-03-21T12:42:18;95295.41;;;24.97;19.55
48156;BME280;35568;48.104;11.782;2023-03-21T12:44:54;95293.48;;;26.20;19.02
48156;BME280;35568;48.104;11.782;2023-03-21T12:47:26;95295.87;;;25.09;19.14
48156;BME280;35568;48.104;11.782;2023-03-21T12:49:58;95295.71;;;25.03;19.63
48156;BME280;35568;48.104;11.782;2023-03-21T12:52:29;95294.38;;;24.85;19.69
48156;BME280;35568;48.104;11.782;2023-03-21T12:55:00;95290.45;;;25.53;19.51
48156;BME280;35568;48.104;11.782;2023-03-21T12:57:31;95286.26;;;25.11;19.76
48156;BME280;35568;48.104;11.782;2023-03-21T13:00:04;95279.80;;;25.46;19.44
48156;BME280;35568;48.104;11.782;2023-03-21T13:02:40;95279.71;;;25.40;19.39
48156;BME280;35568;48.104;11.782;2023-03-21T13:05:15;95272.55;;;25.35;18.96
48156;BME280;35568;48.104;11.782;2023-03-21T13:07:48;95262.89;;;26.60;18.74
48156;BME280;35568;48.104;11.782;2023-03-21T13:10:17;95255.27;;;26.97;18.04
48156;BME280;35568;48.104;11.782;2023-03-21T13:12:54;95249.99;;;27.62;17.28